Getulio Vargas, Brazil
Current Conditions -  °F | °C
As of 7:00 PM on Monday 20 Oct 2014 (Local Time) from SBPF Reporting Station
Clear Clear  
Wind Chill: 68°   Ceiling: Unl
Heat Index: 68°   Visibility: 6mi
Dew Point: 54°   Wind: 14mph
Humidity: 60%   Direction: 130°SE
Pressure: 30.09"   Gusts: NA
Location:  27.89°S, 52.23°W
Report Text: SBPF 202200Z 13012KT CAVOK 20/12 Q1019
Loading
Personal Weather Stations






























Interactive Weather Map
Tropical Storm Tracking
New forecast layout! Learn more

10-Day Weather Forecast

Advertisements
Track Severe Weather on mobile